Time;durP1;ratioP1;P1;durP2;ratioP2;P2;SDS_P1;SDS_P2;PMS_P1;PMS_P2;Temp;Humidity;BMP_temperature;BMP_pressure;BME280_temperature;BME280_humidity;BME280_pressure;Samples;Min_cycle;Max_cycle;Signal;HPM_P1;HPM_P2
2022/03/23 00:01:12;;;;;;;11.50;7.05;;;11.60;49.10;;;;;;5044889;28;20120;-82
2022/03/23 00:03:37;;;;;;;8.23;5.82;;;11.60;49.50;;;;;;5057215;28;20507;-82
2022/03/23 00:06:03;;;;;;;7.97;5.95;;;11.60;48.90;;;;;;5041137;28;20112;-82
2022/03/23 00:08:29;;;;;;;9.38;6.20;;;11.70;49.10;;;;;;5056999;28;20503;-82
2022/03/23 00:10:55;;;;;;;13.32;6.45;;;11.60;48.90;;;;;;5046004;28;20040;-82
2022/03/23 00:13:20;;;;;;;9.27;7.10;;;11.60;48.80;;;;;;5037212;28;20511;-82
2022/03/23 00:15:47;;;;;;;10.50;6.57;;;11.50;48.80;;;;;;5052406;28;20523;-82
2022/03/23 00:18:13;;;;;;;11.27;6.68;;;11.60;48.70;;;;;;5036962;28;20427;-82
2022/03/23 00:20:40;;;;;;;9.38;6.93;;;11.50;48.70;;;;;;5036993;28;20044;-82
2022/03/23 00:23:06;;;;;;;11.68;7.03;;;11.50;48.60;;;;;;5036772;28;20108;-82
2022/03/23 00:25:31;;;;;;;9.68;6.35;;;11.60;48.70;;;;;;5036942;28;20095;-82
2022/03/23 00:27:57;;;;;;;10.77;6.78;;;11.60;49.20;;;;;;5036480;28;20026;-82
2022/03/23 00:30:23;;;;;;;10.30;7.00;;;11.40;49.10;;;;;;5035442;28;20553;-82
2022/03/23 00:32:49;;;;;;;9.13;6.40;;;11.50;49.40;;;;;;5042783;28;20108;-82
2022/03/23 00:35:15;;;;;;;14.07;7.45;;;11.40;49.90;;;;;;5056849;28;20028;-82
2022/03/23 00:37:43;;;;;;;12.75;7.65;;;11.30;49.40;;;;;;5055150;28;20028;-82
2022/03/23 00:40:09;;;;;;;11.75;7.07;;;11.30;49.60;;;;;;5046479;28;20502;-82
2022/03/23 00:42:35;;;;;;;11.52;6.65;;;11.20;49.80;;;;;;5035041;28;20029;-82
2022/03/23 00:45:04;;;;;;;12.88;7.70;;;11.20;49.90;;;;;;5036706;28;20442;-82
2022/03/23 00:47:29;;;;;;;11.48;7.03;;;11.20;49.90;;;;;;5041845;28;20079;-82
2022/03/23 00:49:55;;;;;;;11.65;7.63;;;11.20;50.20;;;;;;5055051;28;20033;-82
2022/03/23 00:52:21;;;;;;;16.65;7.78;;;11.10;50.20;;;;;;5054888;28;20056;-82
2022/03/23 00:54:47;;;;;;;13.73;6.72;;;11.10;50.60;;;;;;5056347;28;20040;-82
2022/03/23 00:57:13;;;;;;;18.20;7.72;;;11.10;50.50;;;;;;5047050;28;20089;-83
2022/03/23 00:59:39;;;;;;;11.95;7.53;;;11.10;50.70;;;;;;5043403;28;20048;-82
2022/03/23 01:02:05;;;;;;;9.68;7.45;;;11.10;50.70;;;;;;5041924;28;20033;-82
2022/03/23 01:04:31;;;;;;;14.00;8.27;;;11.00;50.90;;;;;;5035775;28;20029;-82
2022/03/23 01:06:58;;;;;;;14.65;7.07;;;11.00;51.10;;;;;;5043178;28;20032;-82
2022/03/23 01:09:25;;;;;;;13.20;7.35;;;11.00;51.20;;;;;;5056222;28;20047;-82
2022/03/23 01:11:51;;;;;;;10.90;7.30;;;10.90;51.50;;;;;;5041775;28;20053;-82
2022/03/23 01:14:18;;;;;;;11.05;7.47;;;10.90;51.50;;;;;;5034484;28;20569;-82
2022/03/23 01:16:44;;;;;;;12.15;7.82;;;11.00;51.60;;;;;;5034719;28;20059;-81
2022/03/23 01:19:10;;;;;;;12.35;7.47;;;10.80;51.90;;;;;;5036117;28;20029;-82
2022/03/23 01:21:36;;;;;;;11.55;8.20;;;10.80;52.00;;;;;;5035800;28;20022;-82
2022/03/23 01:24:02;;;;;;;13.45;7.68;;;10.80;52.20;;;;;;5054171;28;20033;-82
2022/03/23 01:26:28;;;;;;;11.77;8.02;;;10.80;52.30;;;;;;5054220;28;20028;-82
2022/03/23 01:28:54;;;;;;;11.32;7.32;;;10.80;52.50;;;;;;5054503;28;20025;-80
2022/03/23 01:31:20;;;;;;;15.98;9.40;;;10.80;52.70;;;;;;5040723;28;20059;-80
2022/03/23 01:33:45;;;;;;;13.05;8.52;;;10.70;52.90;;;;;;5034285;28;20038;-80
2022/03/23 01:36:11;;;;;;;13.38;8.30;;;10.70;52.90;;;;;;5035655;28;20025;-80
2022/03/23 01:38:37;;;;;;;12.13;8.10;;;10.80;53.00;;;;;;5035735;28;20037;-80
2022/03/23 01:41:03;;;;;;;12.40;7.40;;;10.70;53.20;;;;;;5033851;28;20091;-80
2022/03/23 01:43:30;;;;;;;13.50;8.65;;;10.70;53.40;;;;;;5035495;28;20041;-81
2022/03/23 01:45:56;;;;;;;11.15;7.90;;;10.70;53.50;;;;;;5035498;28;20043;-81
2022/03/23 01:48:22;;;;;;;13.07;8.32;;;10.60;53.80;;;;;;5035044;28;20033;-80
2022/03/23 01:50:49;;;;;;;15.23;8.07;;;10.50;54.10;;;;;;5035437;28;20052;-80
2022/03/23 01:53:14;;;;;;;11.40;7.50;;;10.50;54.20;;;;;;5035442;28;20021;-80
2022/03/23 01:55:40;;;;;;;13.95;8.68;;;10.50;54.10;;;;;;5035189;28;20021;-80
2022/03/23 01:58:06;;;;;;;12.93;8.27;;;10.50;54.40;;;;;;5035044;28;20025;-80
2022/03/23 02:00:31;;;;;;;11.95;7.53;;;10.40;54.70;;;;;;5047820;28;20064;-80
2022/03/23 02:02:57;;;;;;;12.40;8.45;;;10.30;54.80;;;;;;5035268;28;20045;-80
2022/03/23 02:05:23;;;;;;;12.55;8.07;;;10.30;54.90;;;;;;5033569;28;20036;-80
2022/03/23 02:07:50;;;;;;;11.98;9.23;;;10.30;54.90;;;;;;5051324;28;20046;-80
2022/03/23 02:10:17;;;;;;;13.93;7.57;;;10.30;55.00;;;;;;5054887;28;20044;-81
2022/03/23 02:12:43;;;;;;;11.73;7.28;;;10.30;55.30;;;;;;5053660;28;20025;-81
2022/03/23 02:15:17;;;;;;;15.75;8.88;;;10.20;55.30;;;;;;5034743;28;20067;-80
2022/03/23 02:17:44;;;;;;;12.73;8.63;;;10.30;55.30;;;;;;5035111;28;20021;-80
2022/03/23 02:20:11;;;;;;;15.73;8.55;;;10.30;55.50;;;;;;5034941;28;21097;-81
2022/03/23 02:22:37;;;;;;;11.95;8.02;;;10.20;55.60;;;;;;5033486;28;20480;-80
2022/03/23 02:25:04;;;;;;;11.50;7.80;;;10.20;55.70;;;;;;5041829;28;20021;-81
2022/03/23 02:27:30;;;;;;;11.82;8.48;;;10.20;55.70;;;;;;5054878;28;20484;-80
2022/03/23 02:29:57;;;;;;;10.07;8.50;;;10.20;55.60;;;;;;5050126;28;20022;-81
2022/03/23 02:32:24;;;;;;;11.48;8.32;;;10.20;55.80;;;;;;5034863;28;20504;-80
2022/03/23 02:34:50;;;;;;;11.98;7.75;;;10.20;55.70;;;;;;5034560;28;20022;-80
2022/03/23 02:37:16;;;;;;;13.50;8.07;;;10.10;55.90;;;;;;5033531;28;20022;-81
2022/03/23 02:39:42;;;;;;;10.88;7.78;;;10.20;55.90;;;;;;5034789;28;20022;-80
2022/03/23 02:42:08;;;;;;;10.48;7.80;;;10.10;55.80;;;;;;5034672;28;20029;-80
2022/03/23 02:44:34;;;;;;;13.73;8.07;;;10.10;56.00;;;;;;5033464;28;20183;-80
2022/03/23 02:47:01;;;;;;;14.25;8.80;;;10.20;55.80;;;;;;5033671;28;20982;-80
2022/03/23 02:49:27;;;;;;;14.30;8.18;;;10.10;56.00;;;;;;5034817;28;20120;-80
2022/03/23 02:51:52;;;;;;;15.68;8.68;;;10.10;56.00;;;;;;5033092;28;20107;-80
2022/03/23 03:02:42;;;;;;;13.10;8.55;;;9.90;56.40;;;;;;5054794;28;20045;-80
2022/03/23 03:05:10;;;;;;;11.40;7.85;;;9.90;56.60;;;;;;5052485;28;20032;-80
2022/03/23 03:10:23;;;;;;;14.80;7.78;;;9.80;56.90;;;;;;5054005;28;20399;-80
2022/03/23 03:12:50;;;;;;;13.80;8.18;;;9.80;57.10;;;;;;5054340;28;20025;-80
2022/03/23 03:15:18;;;;;;;13.93;8.68;;;9.70;57.10;;;;;;5039263;28;20029;-80
2022/03/23 03:17:44;;;;;;;11.52;7.95;;;9.80;57.10;;;;;;5034543;28;20443;-80
2022/03/23 03:20:10;;;;;;;12.55;8.15;;;9.80;57.00;;;;;;5035958;28;20107;-80
2022/03/23 03:22:39;;;;;;;12.63;7.95;;;9.70;56.90;;;;;;5038132;28;20036;-80
2022/03/23 03:25:06;;;;;;;14.00;8.23;;;9.70;57.00;;;;;;5037852;28;20129;-80
2022/03/23 03:27:35;;;;;;;10.55;8.02;;;9.70;57.00;;;;;;5037795;28;20087;-80
2022/03/23 03:30:21;;;;;;;11.10;8.13;;;9.70;56.90;;;;;;5037795;28;20025;-80
2022/03/23 03:32:46;;;;;;;17.17;8.63;;;9.70;57.10;;;;;;5037530;28;20049;-80
2022/03/23 03:35:13;;;;;;;10.70;7.50;;;9.60;57.10;;;;;;5037756;28;20057;-80
2022/03/23 03:37:39;;;;;;;13.13;8.18;;;9.60;57.40;;;;;;5037776;28;20029;-80
2022/03/23 03:40:06;;;;;;;11.10;7.78;;;9.70;57.60;;;;;;5037528;28;20034;-80
2022/03/23 03:42:32;;;;;;;13.05;8.68;;;9.60;57.40;;;;;;5037569;28;20557;-80
2022/03/23 03:44:58;;;;;;;15.07;8.25;;;9.50;57.40;;;;;;5037403;28;20101;-80
2022/03/23 03:47:24;;;;;;;11.95;8.05;;;9.50;57.30;;;;;;5042419;28;20013;-81
2022/03/23 03:49:51;;;;;;;12.90;8.20;;;9.50;57.10;;;;;;5056290;28;20498;-80
2022/03/23 03:52:20;;;;;;;12.95;8.05;;;9.60;57.10;;;;;;5051762;28;20128;-80
2022/03/23 03:54:46;;;;;;;13.93;8.93;;;9.50;57.30;;;;;;5037565;28;20072;-80
2022/03/23 03:57:12;;;;;;;12.80;8.57;;;9.50;57.20;;;;;;5037097;28;20021;-80
2022/03/23 03:59:38;;;;;;;11.57;7.32;;;9.50;57.60;;;;;;5044272;28;20140;-80
2022/03/23 04:02:04;;;;;;;12.70;8.63;;;9.40;57.10;;;;;;5051285;28;20641;-80
2022/03/23 04:04:30;;;;;;;13.68;9.13;;;9.50;57.10;;;;;;5037320;28;20036;-80
2022/03/23 04:06:56;;;;;;;13.85;8.50;;;9.40;57.30;;;;;;5049904;28;20028;-80
2022/03/23 04:09:22;;;;;;;11.75;7.40;;;9.40;57.40;;;;;;5052952;28;20033;-80
2022/03/23 04:11:48;;;;;;;13.82;8.60;;;9.40;57.30;;;;;;5035729;28;20154;-80
2022/03/23 04:14:13;;;;;;;11.63;8.23;;;9.30;57.30;;;;;;5035850;28;20397;-80
2022/03/23 04:16:39;;;;;;;14.00;7.85;;;9.40;57.30;;;;;;5037057;28;20028;-80
2022/03/23 04:19:06;;;;;;;10.77;7.47;;;9.30;57.30;;;;;;5035279;28;20036;-80
2022/03/23 04:21:32;;;;;;;10.65;7.47;;;9.30;57.00;;;;;;5035828;28;20034;-80
2022/03/23 04:23:58;;;;;;;11.20;7.93;;;9.30;57.10;;;;;;5035350;28;20025;-80
2022/03/23 04:26:24;;;;;;;12.18;8.13;;;9.30;56.90;;;;;;5035522;28;20350;-80
2022/03/23 04:28:51;;;;;;;11.38;7.68;;;9.30;56.70;;;;;;5035499;28;20061;-80
2022/03/23 04:31:17;;;;;;;15.82;8.38;;;9.30;56.90;;;;;;5039132;28;20027;-80
2022/03/23 04:33:42;;;;;;;9.10;7.15;;;9.30;56.80;;;;;;5056686;28;20101;-80
2022/03/23 04:36:09;;;;;;;10.13;7.63;;;9.20;56.90;;;;;;5055606;28;20031;-80
2022/03/23 04:38:35;;;;;;;14.05;7.57;;;9.20;56.80;;;;;;5055100;28;20021;-80
2022/03/23 04:41:02;;;;;;;11.68;7.90;;;9.20;56.80;;;;;;5042271;28;20037;-80
2022/03/23 04:43:28;;;;;;;11.93;7.28;;;9.20;56.70;;;;;;5036589;28;20082;-80
2022/03/23 04:45:53;;;;;;;14.93;8.82;;;9.10;56.80;;;;;;5035189;28;20116;-79
2022/03/23 04:48:19;;;;;;;9.80;7.82;;;9.10;56.90;;;;;;5043993;28;20021;-80
2022/03/23 04:50:47;;;;;;;14.00;7.38;;;9.10;56.70;;;;;;5036669;28;20110;-80
2022/03/23 04:53:13;;;;;;;10.05;7.72;;;9.10;56.70;;;;;;5034974;28;20033;-80
2022/03/23 04:55:39;;;;;;;12.10;7.18;;;9.20;56.50;;;;;;5034677;28;20075;-80
2022/03/23 04:58:05;;;;;;;12.13;7.32;;;9.10;56.40;;;;;;5038048;28;20021;-80
2022/03/23 05:00:30;;;;;;;10.80;6.95;;;9.10;56.60;;;;;;5049301;28;20064;-80
2022/03/23 05:02:56;;;;;;;9.88;6.70;;;9.10;56.40;;;;;;5054702;28;20060;-80
2022/03/23 05:05:22;;;;;;;11.75;7.95;;;8.90;56.50;;;;;;5056394;28;20025;-80
2022/03/23 05:07:47;;;;;;;11.57;8.23;;;9.00;56.50;;;;;;5056004;28;20025;-79
2022/03/23 05:10:14;;;;;;;10.45;7.55;;;8.90;56.40;;;;;;5050455;28;20128;-80
2022/03/23 05:12:41;;;;;;;11.00;7.40;;;8.90;56.10;;;;;;5035943;28;20033;-80
2022/03/23 05:15:08;;;;;;;11.65;7.25;;;9.00;56.20;;;;;;5037755;28;20451;-80
2022/03/23 05:17:35;;;;;;;14.02;8.35;;;8.90;56.10;;;;;;5053739;28;20025;-80
2022/03/23 05:20:02;;;;;;;9.10;6.68;;;8.90;56.00;;;;;;5055952;28;20056;-79
2022/03/23 05:22:28;;;;;;;9.48;7.38;;;8.80;56.20;;;;;;5054431;28;20028;-80
2022/03/23 05:24:54;;;;;;;11.50;7.90;;;8.80;55.80;;;;;;5055559;28;20453;-80
2022/03/23 05:27:20;;;;;;;11.13;8.60;;;8.80;55.80;;;;;;5050174;28;20060;-80
2022/03/23 05:29:46;;;;;;;8.77;6.90;;;8.80;55.50;;;;;;5035682;28;20368;-80
2022/03/23 05:32:16;;;;;;;11.50;7.72;;;8.70;55.50;;;;;;5035462;28;20096;-80
2022/03/23 05:34:44;;;;;;;14.18;7.55;;;8.70;55.50;;;;;;5041886;28;20055;-80
2022/03/23 05:37:10;;;;;;;9.98;7.25;;;8.70;55.20;;;;;;5054214;28;20112;-80
2022/03/23 05:39:35;;;;;;;10.90;6.60;;;8.80;54.70;;;;;;5036125;28;20057;-80
2022/03/23 05:42:01;;;;;;;12.30;8.05;;;8.70;54.30;;;;;;5033564;28;20914;-80
2022/03/23 05:44:26;;;;;;;10.48;7.35;;;8.70;54.30;;;;;;5035609;28;20407;-79
2022/03/23 05:46:53;;;;;;;9.88;6.97;;;8.70;54.30;;;;;;5035015;28;20084;-79
2022/03/23 05:49:18;;;;;;;10.07;7.25;;;8.70;53.90;;;;;;5035260;28;20029;-75
2022/03/23 05:55:12;;;;;;;8.45;6.93;;;8.70;53.40;;;;;;5071989;28;20431;-80
2022/03/23 12:42:55;;;;;;;8.82;5.63;;;16.00;29.60;;;;;;5112643;27;20472;-87
2022/03/23 12:45:23;;;;;;;10.50;5.20;;;16.30;31.70;;;;;;5109949;28;20088;-84
2022/03/23 12:47:57;;;;;;;6.10;4.78;;;16.60;30.20;;;;;;5094224;28;20028;-79
2022/03/23 12:59:26;;;;;;;7.22;4.75;;;17.30;26.90;;;;;;5108454;28;20414;-80
2022/03/23 13:02:15;;;;;;;10.35;5.57;;;17.20;27.20;;;;;;5108818;28;20027;-80
2022/03/23 13:04:44;;;;;;;6.78;5.40;;;17.30;26.90;;;;;;5107331;28;20099;-79
2022/03/23 13:07:28;;;;;;;8.57;5.05;;;17.40;28.10;;;;;;5108080;28;20034;-79
2022/03/23 13:10:15;;;;;;;7.45;4.60;;;17.50;27.60;;;;;;5110357;28;20024;-79
2022/03/23 13:12:44;;;;;;;7.63;5.53;;;17.70;27.00;;;;;;5108923;28;20052;-79
2022/03/23 13:15:15;;;;;;;6.13;4.80;;;17.70;27.80;;;;;;5110615;28;20023;-86
2022/03/23 13:17:48;;;;;;;9.88;5.65;;;17.70;28.10;;;;;;5099407;28;20024;-82
2022/03/23 13:20:17;;;;;;;8.50;5.15;;;17.80;27.30;;;;;;5109766;28;20019;-83
2022/03/23 13:22:44;;;;;;;9.15;5.97;;;17.70;27.40;;;;;;5098752;28;20127;-83
2022/03/23 13:25:14;;;;;;;8.57;5.53;;;17.70;26.60;;;;;;5099333;28;20036;-83
2022/03/23 13:27:41;;;;;;;8.15;5.15;;;17.60;26.90;;;;;;5090080;28;20031;-87
2022/03/23 13:30:12;;;;;;;7.10;5.22;;;17.60;28.10;;;;;;5109571;28;20035;-87
2022/03/23 13:32:40;;;;;;;9.52;5.70;;;17.60;28.10;;;;;;5100112;28;20101;-88
2022/03/23 13:35:17;;;;;;;9.50;5.80;;;17.70;29.00;;;;;;5110148;28;20042;-87
2022/03/23 13:37:59;;;;;;;10.48;6.07;;;17.70;27.10;;;;;;5090247;28;20096;-87
2022/03/23 13:43:19;;;;;;;7.15;5.25;;;17.60;27.20;;;;;;5089138;28;20033;-88
2022/03/23 13:43:22;;;;;;;7.55;5.30;;;17.70;28.30;;;;;;5107758;28;20082;-87
2022/03/23 13:45:58;;;;;;;7.35;4.88;;;17.70;27.70;;;;;;5108660;28;20093;-87
2022/03/23 13:48:31;;;;;;;9.88;6.35;;;17.90;28.60;;;;;;5092003;28;20494;-87
2022/03/23 13:50:59;;;;;;;7.78;5.78;;;17.90;27.80;;;;;;5092397;28;20077;-86
2022/03/23 13:53:25;;;;;;;7.10;5.45;;;17.80;28.50;;;;;;5101648;28;20066;-87
2022/03/23 13:55:53;;;;;;;6.97;5.45;;;17.90;27.40;;;;;;5089359;28;20032;-87
2022/03/23 13:58:21;;;;;;;8.52;5.90;;;17.90;28.00;;;;;;5077305;28;20704;-87
2022/03/23 14:00:52;;;;;;;9.75;6.28;;;18.00;28.30;;;;;;5091192;28;20043;-87
2022/03/23 14:03:24;;;;;;;7.72;5.47;;;17.80;28.10;;;;;;5086822;28;20042;-86
2022/03/23 14:06:04;;;;;;;8.57;5.35;;;17.90;28.70;;;;;;5058762;28;20035;-86
2022/03/23 14:08:31;;;;;;;;;;;18.00;28.70;;;;;;5059473;28;20103;-86
2022/03/23 14:10:58;;;;;;;8.43;5.82;;;17.70;27.60;;;;;;5081810;28;19916;-86
2022/03/23 14:13:26;;;;;;;8.23;4.88;;;17.90;26.90;;;;;;5097411;28;20051;-87
2022/03/23 14:15:57;;;;;;;9.75;5.80;;;17.80;27.00;;;;;;5093631;28;20019;-86
2022/03/23 14:18:24;;;;;;;7.85;5.75;;;17.80;26.60;;;;;;5087848;28;20028;-87
2022/03/23 14:20:52;;;;;;;8.80;5.20;;;17.70;27.40;;;;;;5079283;28;20039;-88
2022/03/23 14:23:23;;;;;;;6.68;5.45;;;17.90;28.20;;;;;;5080410;28;20028;-86
2022/03/23 14:25:51;;;;;;;9.07;5.18;;;17.90;27.00;;;;;;5076510;28;20466;-86
2022/03/23 14:28:22;;;;;;;8.65;5.75;;;17.90;26.90;;;;;;5076429;28;20478;-85
2022/03/23 14:31:00;;;;;;;7.15;4.82;;;18.00;26.90;;;;;;5076526;28;20044;-86
2022/03/23 14:33:27;;;;;;;7.75;4.93;;;18.10;26.70;;;;;;5076827;28;20032;-86
2022/03/23 14:35:55;;;;;;;6.20;5.00;;;17.90;26.10;;;;;;5076475;28;20024;-86
2022/03/23 14:38:25;;;;;;;8.15;4.68;;;18.00;26.80;;;;;;5079472;28;20020;-86
2022/03/23 14:41:00;;;;;;;6.47;4.53;;;18.10;26.60;;;;;;5096392;28;20040;-86
2022/03/23 14:43:26;;;;;;;7.68;5.28;;;18.00;26.80;;;;;;5096609;28;20024;-87
2022/03/23 14:45:51;;;;;;;8.68;5.30;;;18.00;25.80;;;;;;5095691;28;20036;-86
2022/03/23 14:48:35;;;;;;;8.52;5.18;;;18.10;25.70;;;;;;5079647;28;20028;-85
2022/03/23 14:51:02;;;;;;;10.23;5.00;;;17.90;25.90;;;;;;5074242;28;20033;-85
2022/03/23 14:53:29;;;;;;;9.90;5.85;;;18.20;26.10;;;;;;5076526;28;20094;-85
2022/03/23 14:55:57;;;;;;;7.93;5.75;;;17.90;25.30;;;;;;5078634;28;20892;-85
2022/03/23 14:58:34;;;;;;;7.90;5.72;;;18.00;25.40;;;;;;5092734;28;20486;-81
2022/03/23 15:01:03;;;;;;;8.23;5.50;;;18.00;25.60;;;;;;5091845;28;20394;-81
2022/03/23 15:03:31;;;;;;;9.20;6.15;;;18.00;25.80;;;;;;5077079;28;20024;-81
2022/03/23 15:14:11;;;;;;;10.55;6.00;;;18.00;26.60;;;;;;5094944;28;20069;-81
2022/03/23 15:16:38;;;;;;;8.25;5.70;;;17.90;25.70;;;;;;5094438;28;20032;-81
2022/03/23 15:19:05;;;;;;;7.55;5.47;;;17.90;25.90;;;;;;5095752;28;20401;-81
2022/03/23 15:21:31;;;;;;;6.60;5.15;;;18.00;26.60;;;;;;5095643;28;20070;-81
2022/03/23 15:24:00;;;;;;;7.35;5.20;;;17.90;25.70;;;;;;5093926;28;20024;-81
2022/03/23 15:26:25;;;;;;;7.93;5.55;;;17.90;25.70;;;;;;5095855;28;20753;-81
2022/03/23 15:28:53;;;;;;;8.07;5.18;;;17.90;25.60;;;;;;5095474;28;20047;-81
2022/03/23 15:31:20;;;;;;;10.68;6.25;;;17.70;25.20;;;;;;5095694;28;20024;-81
2022/03/23 15:33:46;;;;;;;11.43;5.22;;;17.90;25.70;;;;;;5076456;28;20031;-81
2022/03/23 15:36:12;;;;;;;10.82;6.78;;;17.70;25.50;;;;;;5095361;28;20042;-81
2022/03/23 15:38:37;;;;;;;9.18;5.22;;;17.80;25.80;;;;;;5095196;28;20032;-80
2022/03/23 15:41:03;;;;;;;9.98;6.25;;;17.80;25.70;;;;;;5093875;28;20043;-81
2022/03/23 15:43:29;;;;;;;6.78;5.80;;;17.70;26.10;;;;;;5095635;28;20020;-82
2022/03/23 15:45:57;;;;;;;10.85;5.95;;;17.80;25.70;;;;;;5081792;28;20394;-81
2022/03/23 15:48:28;;;;;;;7.60;5.10;;;17.80;25.50;;;;;;5076809;28;20024;-81
2022/03/23 15:50:55;;;;;;;6.53;5.10;;;17.70;26.10;;;;;;5091074;28;20031;-80
2022/03/23 15:53:22;;;;;;;8.63;6.15;;;17.80;26.10;;;;;;5077312;28;20026;-81
2022/03/23 15:55:49;;;;;;;9.52;5.32;;;17.90;27.10;;;;;;5094895;28;20091;-80
2022/03/23 15:58:15;;;;;;;8.43;5.57;;;18.00;27.30;;;;;;5093501;28;20027;-81
2022/03/23 16:00:41;;;;;;;9.68;6.93;;;18.10;26.40;;;;;;5094952;28;20028;-80
2022/03/23 16:03:08;;;;;;;9.65;6.13;;;18.00;26.50;;;;;;5095141;28;20628;-80
2022/03/23 16:05:34;;;;;;;9.18;5.32;;;17.90;26.10;;;;;;5093194;28;20386;-80
2022/03/23 16:08:00;;;;;;;10.43;5.88;;;17.80;26.50;;;;;;5075443;28;20023;-80
2022/03/23 16:10:26;;;;;;;8.75;5.72;;;17.80;27.10;;;;;;5093406;28;20050;-80
2022/03/23 16:12:54;;;;;;;9.18;5.75;;;17.80;27.20;;;;;;5094175;28;20016;-80
2022/03/23 16:15:24;;;;;;;8.95;5.55;;;17.70;26.40;;;;;;5093284;28;20687;-81
2022/03/23 16:17:53;;;;;;;11.50;5.88;;;17.70;26.10;;;;;;5094923;28;20059;-80
2022/03/23 16:20:19;;;;;;;11.77;7.47;;;17.60;26.40;;;;;;5094867;28;20060;-80
2022/03/23 16:22:46;;;;;;;7.78;5.68;;;17.50;26.00;;;;;;5076916;28;20035;-80
2022/03/23 16:25:12;;;;;;;9.90;6.38;;;17.50;26.50;;;;;;5073413;28;20025;-80
2022/03/23 16:27:41;;;;;;;8.55;6.22;;;17.50;26.40;;;;;;5071304;28;20047;-80
2022/03/23 16:30:08;;;;;;;9.55;5.63;;;17.60;27.30;;;;;;5084089;28;20093;-85
2022/03/23 16:32:37;;;;;;;8.70;5.80;;;17.60;27.00;;;;;;5068922;28;20028;-85
2022/03/23 16:35:06;;;;;;;7.65;5.65;;;17.60;27.20;;;;;;5091705;28;20024;-84
2022/03/23 16:37:36;;;;;;;8.87;5.80;;;17.40;26.60;;;;;;5091344;28;20782;-83
2022/03/23 16:40:14;;;;;;;8.65;5.97;;;17.50;27.50;;;;;;5089704;28;20109;-84
2022/03/23 16:42:40;;;;;;;8.48;5.78;;;17.50;28.20;;;;;;5071424;28;20143;-84
2022/03/23 16:45:07;;;;;;;12.13;5.95;;;17.50;28.40;;;;;;5075906;28;20529;-83
2022/03/23 16:47:32;;;;;;;9.43;5.97;;;17.50;28.50;;;;;;5094646;28;20028;-82
2022/03/23 16:49:58;;;;;;;7.57;5.50;;;17.40;28.00;;;;;;5091239;28;20482;-82
2022/03/23 16:52:24;;;;;;;11.50;5.80;;;17.40;28.50;;;;;;5072779;28;20077;-82
2022/03/23 16:54:50;;;;;;;8.02;5.72;;;17.40;28.70;;;;;;5090511;28;20028;-82
2022/03/23 16:57:17;;;;;;;9.55;6.18;;;17.30;27.40;;;;;;5077931;28;20028;-82
2022/03/23 16:59:44;;;;;;;11.13;6.20;;;17.30;27.70;;;;;;5089573;28;20042;-82
2022/03/23 17:02:11;;;;;;;7.95;5.63;;;17.30;28.10;;;;;;5091411;28;20046;-82
2022/03/23 17:12:50;;;;;;;7.47;5.22;;;17.20;27.90;;;;;;5092820;28;20081;-82
2022/03/23 17:15:18;;;;;;;11.38;6.70;;;17.00;27.60;;;;;;5082403;28;20024;-82
2022/03/23 17:17:44;;;;;;;10.10;6.30;;;17.00;27.80;;;;;;5081190;28;20147;-82
2022/03/23 17:20:12;;;;;;;8.85;5.80;;;16.90;28.20;;;;;;5081840;28;20020;-81
2022/03/23 17:22:39;;;;;;;9.30;5.85;;;16.90;28.00;;;;;;5090876;28;20177;-81
2022/03/23 17:25:07;;;;;;;9.38;6.00;;;16.80;28.30;;;;;;5088676;28;20486;-81
2022/03/23 17:27:33;;;;;;;8.70;5.38;;;16.80;28.40;;;;;;5081478;28;20021;-81
2022/03/23 17:29:59;;;;;;;9.38;6.03;;;16.80;28.60;;;;;;5071125;28;20500;-81
2022/03/23 17:32:26;;;;;;;8.55;5.90;;;16.80;28.50;;;;;;5076018;28;20044;-81
2022/03/23 17:34:53;;;;;;;7.78;5.22;;;16.70;28.40;;;;;;5096699;28;20032;-81
2022/03/23 17:37:20;;;;;;;9.80;5.97;;;16.60;28.70;;;;;;5094731;28;20027;-81
2022/03/23 17:39:46;;;;;;;8.15;5.40;;;16.70;29.10;;;;;;5096428;28;20494;-81
2022/03/23 17:42:14;;;;;;;6.88;5.07;;;16.60;29.60;;;;;;5087595;28;20049;-81
2022/03/23 17:44:41;;;;;;;7.72;5.47;;;16.60;29.60;;;;;;5077375;28;20073;-81
2022/03/23 17:47:08;;;;;;;8.75;5.45;;;16.60;29.80;;;;;;5072129;28;20042;-82
2022/03/23 17:49:34;;;;;;;8.02;5.78;;;16.50;30.20;;;;;;5077089;28;20028;-81
2022/03/23 17:52:04;;;;;;;8.77;5.30;;;16.40;30.00;;;;;;5078429;28;20107;-81
2022/03/23 17:54:30;;;;;;;6.88;4.88;;;16.30;30.50;;;;;;5095758;28;20020;-81
2022/03/23 17:56:57;;;;;;;8.23;5.45;;;16.30;31.20;;;;;;5072188;28;20044;-81
2022/03/23 17:59:23;;;;;;;10.05;5.90;;;16.10;30.90;;;;;;5087922;28;20552;-81
2022/03/23 18:01:49;;;;;;;10.88;6.15;;;16.00;31.00;;;;;;5085823;28;20370;-81
2022/03/23 18:04:15;;;;;;;10.88;7.30;;;15.90;31.50;;;;;;5068969;28;20123;-81
2022/03/23 18:06:41;;;;;;;22.40;13.15;;;15.80;31.50;;;;;;5078590;28;20089;-79
2022/03/23 18:09:10;;;;;;;48.85;26.45;;;15.80;32.10;;;;;;5073695;28;20024;-84
2022/03/23 18:11:37;;;;;;;61.40;31.77;;;15.70;32.20;;;;;;5077520;28;20486;-79
2022/03/23 18:14:06;;;;;;;110.43;57.05;;;15.60;32.80;;;;;;5090790;28;20410;-82
2022/03/23 18:16:35;;;;;;;67.57;37.97;;;15.50;32.90;;;;;;5069691;28;20517;-87
2022/03/23 18:19:03;;;;;;;45.35;27.75;;;15.40;33.60;;;;;;5113515;28;20023;-85
2022/03/23 18:21:29;;;;;;;32.78;16.33;;;15.30;33.50;;;;;;5100007;28;20035;-85
2022/03/23 18:23:54;;;;;;;23.05;13.43;;;15.30;33.90;;;;;;5094669;28;20020;-84
2022/03/23 18:26:22;;;;;;;20.67;11.35;;;15.20;34.60;;;;;;5092373;28;20020;-80
2022/03/23 18:28:48;;;;;;;13.73;8.05;;;15.20;34.70;;;;;;5095954;28;20028;-88
2022/03/23 18:31:15;;;;;;;21.00;11.10;;;15.10;35.10;;;;;;5093038;28;20028;-87
2022/03/23 18:33:41;;;;;;;22.05;14.55;;;15.10;35.50;;;;;;5078949;28;20438;-77
2022/03/23 18:36:06;;;;;;;18.67;11.20;;;15.00;35.40;;;;;;5095905;28;20104;-77
2022/03/23 18:38:35;;;;;;;17.40;11.07;;;14.90;35.70;;;;;;5096177;28;20052;-84
2022/03/23 18:41:01;;;;;;;16.90;11.80;;;14.80;36.00;;;;;;5063733;28;20414;-78
2022/03/23 18:43:27;;;;;;;23.88;11.95;;;14.80;35.90;;;;;;5091450;28;20009;-86
2022/03/23 18:45:55;;;;;;;19.10;11.48;;;14.70;36.50;;;;;;5078234;28;20028;-84
2022/03/23 18:48:21;;;;;;;19.77;13.32;;;14.60;36.80;;;;;;5079650;28;20375;-82
2022/03/23 18:50:47;;;;;;;19.33;11.25;;;14.50;37.00;;;;;;5083277;28;20031;-86
2022/03/23 18:53:12;;;;;;;20.92;10.75;;;14.40;37.50;;;;;;5059754;28;20033;-82
2022/03/23 18:55:38;;;;;;;18.33;9.45;;;14.30;38.00;;;;;;5075869;28;20402;-76
2022/03/23 18:58:03;;;;;;;15.27;10.18;;;14.30;37.90;;;;;;5076754;28;20466;-79
2022/03/23 19:00:29;;;;;;;18.17;10.07;;;14.20;37.50;;;;;;5091186;28;20084;-79
2022/03/23 19:02:55;;;;;;;14.65;9.55;;;14.20;38.90;;;;;;5078899;28;21202;-76
2022/03/23 19:05:21;;;;;;;17.55;10.13;;;14.20;38.80;;;;;;5078791;28;20031;-79
2022/03/23 19:07:54;;;;;;;14.15;8.55;;;14.20;38.50;;;;;;5093757;28;20032;-80
2022/03/23 19:10:21;;;;;;;17.00;9.00;;;14.10;39.20;;;;;;5078674;28;20100;-78
2022/03/23 19:12:47;;;;;;;20.73;11.75;;;14.00;39.50;;;;;;5061715;28;20020;-86
2022/03/23 19:15:13;;;;;;;27.02;18.30;;;13.90;38.00;;;;;;5077751;28;20115;-80
2022/03/23 19:17:39;;;;;;;20.05;12.98;;;13.70;38.10;;;;;;5094817;28;20147;-75
2022/03/23 19:20:06;;;;;;;24.25;15.77;;;13.40;38.00;;;;;;5077387;28;20036;-77
2022/03/23 19:22:31;;;;;;;23.85;14.43;;;13.30;38.10;;;;;;5076220;28;20097;-79
2022/03/23 19:24:57;;;;;;;20.15;13.55;;;13.30;38.10;;;;;;5080650;28;20391;-80
2022/03/23 19:27:24;;;;;;;18.98;12.80;;;13.30;38.90;;;;;;5071213;28;20027;-80
2022/03/23 19:29:50;;;;;;;16.75;11.32;;;13.50;39.10;;;;;;5074410;28;20403;-85
2022/03/23 19:32:16;;;;;;;15.48;10.90;;;13.50;39.30;;;;;;5079018;28;20027;-79
2022/03/23 19:34:42;;;;;;;14.30;10.60;;;13.50;38.70;;;;;;5091819;28;20012;-79
2022/03/23 19:37:08;;;;;;;16.40;11.32;;;13.40;38.90;;;;;;5091343;28;20036;-85
2022/03/23 19:39:34;;;;;;;16.23;12.23;;;13.40;39.30;;;;;;5078065;28;20024;-80
2022/03/23 19:42:01;;;;;;;16.25;12.18;;;13.40;39.30;;;;;;5095066;28;20064;-84
2022/03/23 19:44:29;;;;;;;17.65;12.10;;;13.40;40.00;;;;;;5075830;28;20016;-85
2022/03/23 19:46:55;;;;;;;21.10;11.98;;;13.30;40.30;;;;;;5095696;28;20019;-88
2022/03/23 19:49:21;;;;;;;19.08;11.85;;;13.30;39.60;;;;;;5096101;28;20016;-87
2022/03/23 19:51:47;;;;;;;19.83;11.95;;;13.20;40.10;;;;;;5095420;28;20024;-80
2022/03/23 19:54:13;;;;;;;17.65;10.95;;;13.10;40.00;;;;;;5091503;28;20035;-83
2022/03/23 19:56:38;;;;;;;17.13;11.30;;;13.20;40.10;;;;;;5090596;28;20077;-82
2022/03/23 19:59:05;;;;;;;21.42;13.00;;;13.10;40.50;;;;;;5079208;28;20035;-77
2022/03/23 20:01:31;;;;;;;21.60;11.35;;;13.10;41.10;;;;;;5076571;28;20062;-87
2022/03/23 20:03:57;;;;;;;18.38;12.05;;;13.00;40.90;;;;;;5072989;28;20027;-82
2022/03/23 20:06:23;;;;;;;20.35;12.70;;;12.90;41.20;;;;;;5091225;28;20024;-84